Flight Track Log - Related Links

Times and Time Zones

All times are in EDT time to prevent confusion due to time zone crossing. See the USC105 flight status page for this flight to view local times or setup timezone preferences in your user account.

Time Position Orientation Groundspeed Altitude Reporting Facility
EDT Latitude Longitude Course Direction KTS MPH feet Rate Location/Type
Thu 12:17:00 AM 42.2324 -83.6209 258° West  Level FlightAware Approximate
Thu 12:17:45 AM 42.2408 -83.6489 258° West 155 178 3,100  Level Chicago Center
Thu 12:18:45 AM 42.2358 -83.6986 262° West 136 157 4,100 950 Climbing Chicago Center
Thu 12:19:45 AM 42.2322 -83.7500 265° West 138 159 5,000 843 Climbing Chicago Center
Thu 12:20:46 AM 42.2253 -83.8003 259° West 137 158 5,800 446 Climbing Chicago Center
Thu 12:21:46 AM 42.2228 -83.8617 267° West 148 170 5,900 50 Climbing Chicago Center
Thu 12:22:47 AM 42.2169 -83.9319 264° West 173 199 5,900  Level Chicago Center
Thu 12:24:16 AM 42.2086 -84.0458 264° West 193 222 5,900  Level Chicago Center
Thu 12:25:16 AM 42.2044 -84.1186 266° West 196 226 5,900  Level Chicago Center
Thu 12:26:16 AM 42.1994 -84.1922 265° West 197 227 5,900  Level Chicago Center
Thu 12:27:17 AM 42.1967 -84.2656 267° West 197 227 5,900  Level Chicago Center
Thu 12:28:17 AM 42.1914 -84.3386 264° West 196 226 5,900  Level Chicago Center
Thu 12:29:17 AM 42.1867 -84.4128 265° West 198 228 5,900  Level Chicago Center
Thu 12:30:18 AM 42.1833 -84.4867 267° West 198 228 5,900  Level Chicago Center
Thu 12:31:18 AM 42.1794 -84.5556 266° West 196 226 5,900 50 Level Chicago Center
Thu 12:32:18 AM 42.1761 -84.6269 266° West 193 222 6,000 50 Climbing Chicago Center
Thu 12:33:19 AM 42.1700 -84.7003 264° West 196 226 6,000  Level Chicago Center
Thu 12:34:19 AM 42.1664 -84.7717 266° West 193 222 6,000  Level Chicago Center
Thu 12:35:19 AM 42.1617 -84.8439 265° West 195 224 6,000  Level Chicago Center
Thu 12:36:20 AM 42.1572 -84.9139 265° West 191 220 6,000  Level Chicago Center
Thu 12:37:20 AM 42.1528 -84.9856 265° West 192 221 6,000  Level Chicago Center
Thu 12:38:20 AM 42.1489 -85.0575 266° West 194 223 6,000  Level Chicago Center
Thu 12:39:21 AM 42.1439 -85.1278 265° West 192 221 6,000  Level Chicago Center
Thu 12:40:21 AM 42.1389 -85.1972 264° West 189 217 6,000  Level Chicago Center
Thu 12:41:21 AM 42.1347 -85.2658 265° West 187 215 6,000  Level Chicago Center
Thu 12:42:22 AM 42.1317 -85.3364 267° West 188 216 6,000  Level Chicago Center
Thu 12:43:22 AM 42.1258 -85.4058 264° West 189 217 6,000  Level Chicago Center
Thu 12:44:22 AM 42.1222 -85.4753 266° West 188 216 6,000  Level Chicago Center
Thu 12:45:22 AM 42.1164 -85.5575 265° West 186 214 6,000  Level Chicago Center
Thu 12:46:23 AM 42.1117 -85.6272 265° West 188 216 6,000  Level Chicago Center
Thu 12:47:23 AM 42.1069 -85.6964 265° West 186 214 6,000  Level Chicago Center
Thu 12:48:23 AM 42.1022 -85.7656 265° West 186 214 6,000  Level Chicago Center
Thu 12:49:23 AM 42.0972 -85.8350 264° West 188 216 6,000  Level Chicago Center
Thu 12:50:24 AM 42.0925 -85.9036 265° West 187 215 6,000  Level Chicago Center
Thu 12:51:24 AM 42.0881 -85.9722 265° West 186 214 6,000  Level Chicago Center
Thu 12:52:24 AM 42.0814 -86.0419 263° West 189 217 6,000  Level Chicago Center
Thu 12:53:24 AM 42.0758 -86.1086 264° West 183 211 6,000  Level Chicago Center
Thu 12:54:24 AM 42.0725 -86.1744 266° West 180 207 6,000  Level Chicago Center
Thu 12:55:25 AM 42.0675 -86.2425 264° West 183 211 6,000  Level Chicago Center
Thu 12:56:25 AM 42.0633 -86.3089 265° West 180 207 6,000  Level Chicago Center
Thu 12:57:25 AM 42.0575 -86.3756 263° West 179 206 6,000  Level Chicago Center
Thu 12:58:25 AM 42.0533 -86.4431 265° West 181 208 6,000  Level Chicago Center
Thu 12:59:25 AM 42.0481 -86.5086 264° West 178 205 6,000  Level Chicago Center
Thu 01:00:26 AM 42.0436 -86.5750 265° West 179 206 6,000  Level Chicago Center
Thu 01:01:26 AM 42.0389 -86.6406 264° West 177 204 6,000  Level Chicago Center
Thu 01:02:26 AM 42.0342 -86.7058 264° West 178 205 6,000  Level Chicago Center
Thu 01:03:26 AM 42.0292 -86.7733 264° West 180 207 6,000  Level Chicago Center
Thu 01:04:26 AM 42.0236 -86.8394 264° West 181 208 6,000  Level Chicago Center
Thu 01:05:27 AM 42.0181 -86.9075 264° West 183 211 6,000  Level Chicago Center
Thu 01:06:27 AM 42.0131 -86.9744 264° West 182 209 6,000  Level Chicago Center
Thu 01:07:27 AM 42.0083 -87.0425 265° West 183 211 6,000  Level Chicago Center
Thu 01:08:27 AM 42.0039 -87.1089 265° West 181 208 6,000  Level Chicago Center
Thu 01:09:28 AM 41.9969 -87.1772 262° West 184 212 6,000  Level Chicago Center
Thu 01:10:28 AM 41.9931 -87.2444 266° West 182 209 6,000  Level Chicago Center
Thu 01:11:28 AM 41.9856 -87.3269 263° West 186 214 6,000  Level Chicago Center
Thu 01:12:23 AM 41.9833 -87.3833 267° West 182 209 6,000  Level Chicago TRACON
Thu 01:13:23 AM 41.9667 -87.4500 251° West 182 209 6,000  Level Chicago TRACON
Thu 01:14:24 AM 41.9667 -87.5167 270° West 184 212 6,000  Level Chicago TRACON
Thu 01:15:18 AM 41.9667 -87.5833 270° West 187 215 6,000 -105 Level Chicago TRACON
Thu 01:16:18 AM 41.9500 -87.6500 251° West 191 220 5,800 -450 Descending Chicago TRACON
Thu 01:17:18 AM 41.9500 -87.7333 270° West 205 236 5,100 -650 Descending Chicago TRACON
Thu 01:18:18 AM 41.9500 -87.8000 270° West 202 232 4,500 -600 Descending Chicago TRACON
Thu 01:19:18 AM 41.9333 -87.8833 255° West 200 230 3,900 -667 Descending Chicago TRACON
Thu 01:19:57 AM 41.9333 -87.9167 270° West 201 231 3,400 -667 Descending Chicago TRACON
Thu 01:20:57 AM 41.9333 -88.0000 270° West 189 217 2,800 -500 Descending Chicago TRACON
Thu 01:21:57 AM 41.9167 -88.0667 251° West 167 192 2,400 -275 Descending Chicago TRACON
Thu 01:23:30 AM 41.9094 -88.1422 263° West 166 191 2,100 -392 Descending Chicago Center
Thu 01:24:30 AM 41.9067 -88.1947 266° West 153 176 1,400 -550 Descending Chicago Center
Thu 01:25:30 AM 41.9108 -88.2461 276° West 144 166 1,000 -400 Descending Chicago Center
Thu 01:27:00 AM 41.9071 -88.2480 270° West  Level Estimated
Thu 01:34:00 AM 41.9071 -88.2480 270° West  Level Estimated
Thu 01:35:00 AM 41.9071 -88.2480 270° West  Level Estimated

Login

Don't have an account? Register now (free) for customized features, flight alerts, and more!